createdAt,value
2023-05-21T00:00:44.583Z,70.02
2023-05-21T00:01:44.576Z,70.02
2023-05-21T00:02:45.577Z,70.12
2023-05-21T00:03:44.665Z,70.02
2023-05-21T00:04:44.525Z,70.12
2023-05-21T00:05:44.585Z,70.02
2023-05-21T00:06:44.593Z,70.26
2023-05-21T00:07:44.538Z,70.36
2023-05-21T00:08:45.407Z,70.36
2023-05-21T00:09:44.455Z,70.26
2023-05-21T00:10:44.470Z,70.46
2023-05-21T00:11:44.476Z,70.56
2023-05-21T00:12:44.432Z,70.46
2023-05-21T00:13:44.419Z,70.66
2023-05-21T00:14:45.316Z,70.66
2023-05-21T00:15:44.447Z,70.66
2023-05-21T00:16:44.483Z,70.76
2023-05-21T00:17:44.487Z,70.86
2023-05-21T00:18:44.352Z,70.86
2023-05-21T00:19:45.340Z,71.06
2023-05-21T00:20:44.419Z,70.97
2023-05-21T00:21:44.327Z,70.97
2023-05-21T00:22:44.327Z,71.06
2023-05-21T00:23:44.295Z,70.86
2023-05-21T00:24:44.304Z,71.17
2023-05-21T00:25:45.236Z,71.06
2023-05-21T00:26:44.375Z,70.97
2023-05-21T00:27:44.228Z,70.97
2023-05-21T00:28:44.209Z,71.06
2023-05-21T00:29:44.599Z,70.97
2023-05-21T00:30:45.170Z,71.06
2023-05-21T00:31:44.254Z,71.17
2023-05-21T00:32:44.293Z,71.17
2023-05-21T00:33:44.166Z,71.26
2023-05-21T00:34:44.177Z,71.26
2023-05-21T00:35:45.074Z,71.37
2023-05-21T00:36:44.145Z,71.67
2023-05-21T00:37:44.175Z,71.47
2023-05-21T00:38:44.171Z,71.57
2023-05-21T00:39:44.075Z,71.47
2023-05-21T00:40:44.114Z,71.67
2023-05-21T00:41:45.092Z,71.67
2023-05-21T00:42:44.086Z,71.87
2023-05-21T00:43:44.035Z,71.67
2023-05-21T00:44:44.057Z,71.77
2023-05-21T00:45:44.055Z,71.77
2023-05-21T00:46:44.134Z,71.77
2023-05-21T00:47:44.986Z,71.87
2023-05-21T00:48:43.966Z,71.87
2023-05-21T00:49:44.001Z,71.77
2023-05-21T00:50:43.977Z,71.57
2023-05-21T00:51:43.968Z,71.67
2023-05-21T00:52:43.888Z,71.67
2023-05-21T00:53:44.897Z,71.87
2023-05-21T00:54:43.954Z,71.67
2023-05-21T00:55:43.917Z,71.77
2023-05-21T00:56:43.889Z,71.67
2023-05-21T00:57:43.910Z,71.67
2023-05-21T00:58:43.920Z,71.77
2023-05-21T00:59:44.776Z,71.87
2023-05-21T01:00:43.896Z,71.87
2023-05-21T01:01:43.986Z,72.27
2023-05-21T01:02:43.840Z,71.97
2023-05-21T01:03:43.816Z,71.77
2023-05-21T01:04:43.834Z,71.87
2023-05-21T01:05:44.743Z,71.87
2023-05-21T01:06:43.765Z,71.87
2023-05-21T01:07:43.758Z,71.87
2023-05-21T01:08:43.724Z,72.07
2023-05-21T01:09:43.836Z,72.11
2023-05-21T01:10:43.744Z,72.20
2023-05-21T01:11:44.658Z,72.31
2023-05-21T01:12:43.686Z,72.20
2023-05-21T01:13:43.743Z,72.31
2023-05-21T01:14:43.670Z,72.41
2023-05-21T01:15:43.623Z,72.31
2023-05-21T01:16:44.576Z,72.41
2023-05-21T01:17:43.670Z,72.41
2023-05-21T01:18:43.832Z,72.41
2023-05-21T01:19:43.681Z,72.61
2023-05-21T01:20:43.596Z,72.61
2023-05-21T01:21:44.548Z,72.61
2023-05-21T01:22:43.573Z,72.51
2023-05-21T01:23:43.520Z,72.71
2023-05-21T01:24:43.499Z,72.81
2023-05-21T01:25:43.531Z,72.81
2023-05-21T01:26:44.280Z,72.81
2023-05-21T01:27:44.409Z,72.91
2023-05-21T01:28:43.450Z,73.01
2023-05-21T01:29:43.601Z,73.01
2023-05-21T01:30:43.471Z,73.11
2023-05-21T01:31:43.413Z,73.11
2023-05-21T01:32:43.614Z,73.11
2023-05-21T01:33:44.397Z,73.11
2023-05-21T01:34:43.453Z,73.11
2023-05-21T01:35:43.417Z,73.22
2023-05-21T01:36:43.434Z,73.32
2023-05-21T01:37:43.732Z,73.32
2023-05-21T01:38:43.344Z,73.42
2023-05-21T01:39:44.315Z,73.42
2023-05-21T01:40:43.305Z,73.32
2023-05-21T01:41:43.376Z,73.62
2023-05-21T01:42:43.288Z,73.52
2023-05-21T01:43:43.313Z,73.72
2023-05-21T01:44:43.259Z,73.85
2023-05-21T01:45:44.258Z,73.85
2023-05-21T01:46:43.280Z,74.05
2023-05-21T01:47:43.311Z,74.26
2023-05-21T01:48:43.292Z,74.26
2023-05-21T01:49:43.232Z,74.16
2023-05-21T01:50:44.148Z,74.26
2023-05-21T01:51:43.186Z,74.26
2023-05-21T01:52:43.209Z,74.26
2023-05-21T01:53:43.342Z,74.26
2023-05-21T01:54:43.167Z,74.56
2023-05-21T01:55:43.142Z,74.56
2023-05-21T01:56:44.060Z,74.76
2023-05-21T01:57:43.162Z,74.66
2023-05-21T01:58:43.118Z,74.96
2023-05-21T01:59:43.110Z,74.96
2023-05-21T02:00:43.073Z,74.76
2023-05-21T02:01:44.073Z,74.87
2023-05-21T02:02:43.170Z,74.87
2023-05-21T02:03:43.123Z,75.07
2023-05-21T02:04:43.040Z,75.07
2023-05-21T02:05:43.030Z,75.07
2023-05-21T02:06:42.982Z,75.16
2023-05-21T02:07:43.911Z,75.16
2023-05-21T02:08:42.983Z,75.27
2023-05-21T02:09:42.952Z,75.60
2023-05-21T02:10:43.025Z,75.51
2023-05-21T02:11:42.951Z,75.40
2023-05-21T02:12:43.834Z,75.51
2023-05-21T02:13:42.949Z,75.60
2023-05-21T02:14:42.895Z,75.60
2023-05-21T02:15:42.911Z,75.60
2023-05-21T02:16:42.937Z,75.60
2023-05-21T02:17:42.886Z,75.81
2023-05-21T02:18:43.904Z,75.71
2023-05-21T02:19:42.846Z,75.81
2023-05-21T02:20:42.830Z,75.81
2023-05-21T02:21:42.834Z,75.91
2023-05-21T02:22:42.780Z,76.01
2023-05-21T02:23:43.752Z,76.11
2023-05-21T02:24:42.813Z,75.91
2023-05-21T02:25:42.756Z,76.01
2023-05-21T02:26:42.762Z,76.11
2023-05-21T02:27:42.772Z,76.42
2023-05-21T02:28:43.625Z,76.31
2023-05-21T02:29:42.730Z,76.31
2023-05-21T02:30:42.664Z,76.31
2023-05-21T02:31:42.702Z,76.42
2023-05-21T02:32:43.025Z,76.42
2023-05-21T02:33:42.724Z,76.51
2023-05-21T02:34:43.569Z,76.62
2023-05-21T02:35:42.662Z,76.65
2023-05-21T02:36:42.607Z,76.65
2023-05-21T02:37:42.590Z,76.75
2023-05-21T02:38:42.578Z,76.75
2023-05-21T02:39:43.519Z,77.06
2023-05-21T02:40:42.574Z,77.15
2023-05-21T02:41:42.562Z,76.95
2023-05-21T02:42:42.549Z,76.95
2023-05-21T02:43:42.529Z,76.95
2023-05-21T02:44:43.491Z,77.15
2023-05-21T02:45:42.599Z,77.06
2023-05-21T02:46:42.534Z,77.15
2023-05-21T02:47:42.550Z,77.15
2023-05-21T02:48:42.490Z,77.26
2023-05-21T02:49:43.445Z,77.36
2023-05-21T02:50:42.484Z,77.36
2023-05-21T02:51:42.463Z,77.46
2023-05-21T02:52:42.415Z,77.26
2023-05-21T02:53:43.097Z,77.56
2023-05-21T02:54:43.331Z,77.36
2023-05-21T02:55:42.405Z,77.36
2023-05-21T02:56:42.382Z,77.36
2023-05-21T02:57:42.341Z,77.46
2023-05-21T02:58:42.367Z,77.36
2023-05-21T02:59:42.371Z,77.46
2023-05-21T03:00:43.285Z,77.56
2023-05-21T03:01:42.357Z,77.76
2023-05-21T03:02:42.414Z,77.97
2023-05-21T03:03:42.377Z,77.97
2023-05-21T03:04:42.252Z,77.97
2023-05-21T03:05:42.243Z,77.97
2023-05-21T03:06:43.152Z,77.97
2023-05-21T03:07:42.254Z,78.00
2023-05-21T03:08:42.190Z,78.10
2023-05-21T03:09:42.383Z,78.10
2023-05-21T03:10:42.190Z,78.06
2023-05-21T03:11:44.315Z,78.06
2023-05-21T03:12:42.158Z,78.06
2023-05-21T03:13:42.222Z,78.17
2023-05-21T03:14:42.163Z,78.27
2023-05-21T03:15:42.122Z,78.17
2023-05-21T03:16:42.170Z,77.97
2023-05-21T03:17:43.095Z,78.06
2023-05-21T03:18:42.103Z,78.17
2023-05-21T03:19:42.116Z,78.17
2023-05-21T03:20:42.059Z,78.50
2023-05-21T03:21:42.012Z,78.50
2023-05-21T03:22:42.965Z,78.37
2023-05-21T03:23:42.065Z,78.61
2023-05-21T03:24:41.990Z,78.50
2023-05-21T03:25:42.050Z,78.50
2023-05-21T03:26:42.010Z,78.61
2023-05-21T03:27:41.935Z,78.71
2023-05-21T03:28:42.896Z,78.61
2023-05-21T03:29:41.957Z,78.61
2023-05-21T03:30:41.947Z,78.81
2023-05-21T03:31:42.053Z,78.91
2023-05-21T03:32:41.975Z,79.01
2023-05-21T03:33:42.849Z,79.01
2023-05-21T03:34:41.890Z,79.11
2023-05-21T03:35:41.959Z,79.01
2023-05-21T03:36:41.858Z,79.01
2023-05-21T03:37:41.873Z,79.11
2023-05-21T03:38:42.746Z,79.11
2023-05-21T03:39:41.816Z,79.11
2023-05-21T03:40:41.845Z,79.11
2023-05-21T03:41:41.846Z,79.01
2023-05-21T03:42:41.761Z,79.01
2023-05-21T03:43:41.791Z,79.01
2023-05-21T03:44:42.735Z,79.11
2023-05-21T03:45:44.221Z,79.11
2023-05-21T03:46:41.835Z,79.21
2023-05-21T03:47:41.867Z,79.21
2023-05-21T03:48:41.752Z,79.21
2023-05-21T03:49:41.753Z,79.32
2023-05-21T03:50:42.637Z,79.21
2023-05-21T03:51:41.685Z,79.52
2023-05-21T03:52:46.039Z,79.41
2023-05-21T03:53:41.611Z,79.52
2023-05-21T03:54:41.634Z,79.41
2023-05-21T03:55:41.653Z,79.52
2023-05-21T03:56:42.539Z,79.52
2023-05-21T03:57:41.597Z,79.52
2023-05-21T03:58:41.602Z,79.41
2023-05-21T03:59:41.612Z,79.41
2023-05-21T04:00:41.585Z,79.52
2023-05-21T04:01:42.540Z,79.52
2023-05-21T04:02:41.569Z,79.48
2023-05-21T04:03:41.598Z,79.38
2023-05-21T04:04:41.595Z,79.41
2023-05-21T04:05:41.500Z,79.52
2023-05-21T04:06:42.449Z,79.52
2023-05-21T04:07:41.543Z,79.41
2023-05-21T04:08:41.471Z,79.52
2023-05-21T04:09:41.488Z,79.52
2023-05-21T04:10:41.454Z,79.38
2023-05-21T04:11:41.440Z,79.38
2023-05-21T04:12:42.453Z,79.38
2023-05-21T04:13:41.431Z,79.38
2023-05-21T04:14:41.743Z,79.28
2023-05-21T04:15:41.554Z,79.38
2023-05-21T04:16:41.567Z,79.17
2023-05-21T04:17:41.447Z,79.48
2023-05-21T04:18:44.863Z,79.08
2023-05-21T04:19:41.537Z,79.08
2023-05-21T04:20:41.284Z,79.08
2023-05-21T04:21:41.277Z,78.97
2023-05-21T04:22:41.286Z,78.97
2023-05-21T04:23:41.378Z,78.97
2023-05-21T04:24:42.342Z,78.88
2023-05-21T04:25:41.229Z,78.88
2023-05-21T04:26:41.238Z,78.84
2023-05-21T04:27:41.298Z,78.94
2023-05-21T04:28:41.303Z,78.94
2023-05-21T04:29:41.218Z,78.84
2023-05-21T04:30:42.191Z,78.84
2023-05-21T04:31:41.273Z,78.84
2023-05-21T04:32:41.428Z,78.74
2023-05-21T04:33:41.135Z,78.63
2023-05-21T04:34:41.143Z,78.63
2023-05-21T04:35:42.044Z,78.74
2023-05-21T04:36:41.112Z,78.63
2023-05-21T04:37:41.125Z,78.63
2023-05-21T04:38:41.071Z,78.63
2023-05-21T04:39:41.106Z,78.43
2023-05-21T04:40:41.998Z,78.43
2023-05-21T04:41:41.083Z,78.33
2023-05-21T04:42:41.048Z,78.50
2023-05-21T04:43:41.029Z,78.30
2023-05-21T04:44:41.001Z,78.30
2023-05-21T04:45:40.972Z,78.19
2023-05-21T04:46:42.093Z,78.19
2023-05-21T04:47:41.684Z,77.99
2023-05-21T04:48:40.945Z,78.09
2023-05-21T04:49:40.916Z,78.09
2023-05-21T04:50:40.951Z,78.30
2023-05-21T04:51:41.798Z,78.09
2023-05-21T04:52:40.948Z,77.89
2023-05-21T04:53:40.879Z,77.79
2023-05-21T04:54:40.865Z,77.89
2023-05-21T04:55:40.901Z,77.69
2023-05-21T04:56:41.784Z,77.69
2023-05-21T04:57:40.814Z,77.69
2023-05-21T04:58:40.796Z,77.69
2023-05-21T04:59:40.814Z,77.79
2023-05-21T05:00:40.873Z,77.75
2023-05-21T05:01:40.840Z,77.45
2023-05-21T05:02:41.735Z,77.55
2023-05-21T05:03:40.782Z,77.66
2023-05-21T05:04:40.861Z,77.55
2023-05-21T05:05:40.730Z,77.35
2023-05-21T05:06:40.736Z,77.25
2023-05-21T05:07:41.627Z,77.45
2023-05-21T05:08:40.703Z,77.35
2023-05-21T05:09:40.728Z,77.25
2023-05-21T05:10:40.671Z,77.25
2023-05-21T05:11:40.639Z,77.15
2023-05-21T05:12:40.641Z,77.25
2023-05-21T05:13:41.581Z,77.25
2023-05-21T05:14:40.703Z,77.15
2023-05-21T05:15:40.597Z,77.15
2023-05-21T05:16:40.672Z,77.15
2023-05-21T05:17:40.575Z,77.04
2023-05-21T05:18:41.614Z,77.15
2023-05-21T05:19:40.573Z,77.21
2023-05-21T05:20:40.548Z,76.81
2023-05-21T05:21:40.535Z,76.61
2023-05-21T05:22:40.537Z,76.51
2023-05-21T05:23:40.501Z,76.40
2023-05-21T05:24:41.430Z,76.40
2023-05-21T05:25:40.475Z,76.31
2023-05-21T05:26:40.513Z,76.31
2023-05-21T05:27:40.472Z,76.31
2023-05-21T05:28:40.430Z,76.40
2023-05-21T05:29:41.411Z,76.31
2023-05-21T05:30:40.474Z,76.20
2023-05-21T05:31:40.406Z,76.20
2023-05-21T05:32:40.425Z,76.10
2023-05-21T05:33:40.386Z,76.20
2023-05-21T05:34:41.294Z,76.00
2023-05-21T05:35:40.403Z,76.10
2023-05-21T05:36:40.438Z,76.20
2023-05-21T05:37:40.377Z,76.31
2023-05-21T05:38:40.344Z,76.10
2023-05-21T05:39:40.282Z,75.96
2023-05-21T05:40:46.612Z,76.07
2023-05-21T05:41:40.310Z,75.96
2023-05-21T05:42:40.505Z,75.46
2023-05-21T05:43:40.251Z,75.56
2023-05-21T05:44:40.251Z,75.46
2023-05-21T05:45:40.204Z,75.36
2023-05-21T05:46:41.420Z,75.16
2023-05-21T05:47:40.312Z,74.96
2023-05-21T05:48:40.186Z,74.96
2023-05-21T05:49:40.237Z,75.06
2023-05-21T05:50:40.165Z,74.82
2023-05-21T05:51:41.093Z,74.93
2023-05-21T05:52:40.176Z,74.73
2023-05-21T05:53:40.111Z,74.52
2023-05-21T05:54:40.134Z,74.22
2023-05-21T05:55:40.092Z,74.42
2023-05-21T05:56:41.036Z,74.42
2023-05-21T05:57:40.099Z,74.42
2023-05-21T05:58:40.071Z,74.42
2023-05-21T05:59:40.068Z,74.22
2023-05-21T06:00:40.054Z,74.02
2023-05-21T06:01:40.241Z,74.08
2023-05-21T06:02:41.054Z,73.98
2023-05-21T06:03:40.187Z,73.88
2023-05-21T06:04:40.191Z,73.18
2023-05-21T06:05:40.401Z,73.28
2023-05-21T06:06:39.954Z,73.38
2023-05-21T06:07:40.023Z,73.38
2023-05-21T06:08:40.988Z,73.38
2023-05-21T06:09:39.944Z,73.38
2023-05-21T06:10:40.041Z,73.48
2023-05-21T06:11:39.891Z,73.48
2023-05-21T06:12:40.011Z,73.28
2023-05-21T06:13:39.898Z,73.18
2023-05-21T06:14:41.564Z,72.88
2023-05-21T06:15:39.954Z,72.67
2023-05-21T06:16:39.849Z,72.67
2023-05-21T06:17:39.958Z,72.88
2023-05-21T06:18:39.855Z,72.97
2023-05-21T06:19:39.798Z,72.37
2023-05-21T06:20:40.743Z,72.47
2023-05-21T06:21:39.826Z,72.47
2023-05-21T06:22:39.769Z,72.67
2023-05-21T06:23:39.757Z,72.57
2023-05-21T06:24:39.718Z,72.57
2023-05-21T06:25:40.664Z,72.47
2023-05-21T06:26:39.692Z,72.27
2023-05-21T06:27:39.706Z,72.27
2023-05-21T06:28:39.726Z,72.37
2023-05-21T06:29:39.674Z,72.24
2023-05-21T06:30:39.672Z,72.24
2023-05-21T06:31:40.568Z,72.14
2023-05-21T06:32:39.685Z,72.24
2023-05-21T06:33:39.729Z,72.03
2023-05-21T06:34:39.610Z,71.73
2023-05-21T06:35:39.612Z,71.73
2023-05-21T06:36:40.538Z,72.07
2023-05-21T06:37:39.566Z,72.27
2023-05-21T06:38:39.819Z,72.17
2023-05-21T06:39:39.533Z,72.27
2023-05-21T06:40:39.550Z,72.27
2023-05-21T06:41:39.572Z,72.37
2023-05-21T06:42:40.544Z,72.37
2023-05-21T06:43:39.459Z,72.47
2023-05-21T06:44:39.484Z,72.47
2023-05-21T06:45:39.740Z,72.67
2023-05-21T06:46:39.433Z,72.77
2023-05-21T06:47:40.495Z,72.67
2023-05-21T06:48:39.477Z,72.77
2023-05-21T06:49:39.419Z,72.67
2023-05-21T06:50:39.397Z,72.67
2023-05-21T06:51:39.360Z,72.88
2023-05-21T06:52:39.359Z,72.67
2023-05-21T06:53:40.339Z,72.88
2023-05-21T06:54:39.381Z,72.57
2023-05-21T06:55:39.393Z,72.57
2023-05-21T06:56:39.377Z,72.67
2023-05-21T06:57:39.304Z,72.77
2023-05-21T06:58:39.289Z,72.88
2023-05-21T06:59:40.240Z,72.57
2023-05-21T07:00:39.293Z,72.64
2023-05-21T07:01:39.343Z,72.44
2023-05-21T07:02:39.360Z,72.34
2023-05-21T07:03:39.313Z,72.03
2023-05-21T07:04:40.158Z,71.90
2023-05-21T07:05:39.524Z,71.30
2023-05-21T07:06:39.246Z,71.09
2023-05-21T07:07:39.200Z,71.30
2023-05-21T07:08:39.217Z,71.20
2023-05-21T07:09:40.061Z,71.09
2023-05-21T07:10:39.227Z,71.09
2023-05-21T07:11:39.146Z,70.76
2023-05-21T07:12:39.106Z,70.76
2023-05-21T07:13:39.081Z,70.76
2023-05-21T07:14:40.022Z,70.46
2023-05-21T07:15:39.201Z,70.32
2023-05-21T07:16:39.190Z,70.12
2023-05-21T07:17:39.126Z,69.92
2023-05-21T07:18:39.063Z,69.42
2023-05-21T07:19:39.075Z,69.29
2023-05-21T07:20:39.984Z,69.19
2023-05-21T07:21:39.017Z,68.99
2023-05-21T07:22:39.008Z,68.18
2023-05-21T07:23:39.021Z,68.05
2023-05-21T07:24:38.972Z,67.95
2023-05-21T07:25:39.109Z,67.75
2023-05-21T07:26:39.974Z,67.35
2023-05-21T07:27:38.935Z,67.25
2023-05-21T07:28:38.902Z,66.64
2023-05-21T07:29:38.917Z,66.91
2023-05-21T07:30:38.915Z,66.82
2023-05-21T07:31:38.973Z,66.41
2023-05-21T07:32:39.820Z,66.31
2023-05-21T07:33:38.834Z,66.18
2023-05-21T07:34:38.842Z,65.58
2023-05-21T07:35:38.968Z,65.98
2023-05-21T07:36:38.810Z,65.68
2023-05-21T07:37:38.860Z,65.48
2023-05-21T07:38:39.760Z,65.25
2023-05-21T07:39:38.793Z,65.25
2023-05-21T07:40:38.856Z,65.25
2023-05-21T07:41:38.746Z,64.84
2023-05-21T07:42:38.855Z,64.62
2023-05-21T07:43:39.706Z,64.72
2023-05-21T07:44:38.773Z,64.31
2023-05-21T07:45:38.800Z,64.42
2023-05-21T07:46:38.884Z,64.39
2023-05-21T07:47:38.799Z,64.39
2023-05-21T07:48:38.684Z,64.09
2023-05-21T07:49:39.573Z,63.98
2023-05-21T07:50:38.792Z,63.98
2023-05-21T07:51:38.698Z,63.48
2023-05-21T07:52:38.668Z,63.39
2023-05-21T07:53:38.617Z,63.15
2023-05-21T07:54:38.658Z,63.06
2023-05-21T07:55:39.537Z,63.15
2023-05-21T07:56:38.599Z,63.06
2023-05-21T07:57:38.565Z,62.15
2023-05-21T07:58:38.538Z,62.12
2023-05-21T07:59:38.576Z,62.02
2023-05-21T08:00:38.706Z,61.92
2023-05-21T08:01:39.457Z,61.92
2023-05-21T08:02:38.653Z,62.12
2023-05-21T08:03:38.572Z,61.79
2023-05-21T08:04:41.012Z,61.79
2023-05-21T08:05:38.729Z,61.99
2023-05-21T08:06:39.398Z,61.46
2023-05-21T08:07:38.437Z,61.26
2023-05-21T08:08:38.465Z,61.16
2023-05-21T08:09:38.511Z,61.16
2023-05-21T08:10:38.423Z,60.83
2023-05-21T08:11:39.353Z,60.44
2023-05-21T08:12:38.406Z,59.83
2023-05-21T08:13:38.357Z,59.94
2023-05-21T08:14:38.373Z,59.61
2023-05-21T08:15:38.507Z,59.41
2023-05-21T08:16:39.338Z,58.71
2023-05-21T08:17:38.425Z,59.11
2023-05-21T08:18:39.057Z,58.81
2023-05-21T08:19:38.569Z,58.41
2023-05-21T08:20:38.328Z,58.41
2023-05-21T08:21:39.256Z,58.61
2023-05-21T08:22:38.305Z,58.38
2023-05-21T08:23:38.247Z,58.38
2023-05-21T08:24:38.245Z,57.78
2023-05-21T08:25:38.533Z,57.68
2023-05-21T08:26:38.179Z,57.09
2023-05-21T08:27:39.206Z,57.06
2023-05-21T08:28:38.177Z,56.96
2023-05-21T08:29:38.146Z,57.06
2023-05-21T08:30:38.171Z,56.56
2023-05-21T08:31:38.180Z,55.83
2023-05-21T08:32:38.116Z,55.73
2023-05-21T08:33:39.109Z,56.33
2023-05-21T08:34:38.119Z,55.51
2023-05-21T08:35:38.390Z,55.71
2023-05-21T08:36:38.070Z,55.21
2023-05-21T08:37:38.107Z,55.11
2023-05-21T08:38:38.950Z,54.68
2023-05-21T08:39:38.031Z,54.88
2023-05-21T08:40:38.039Z,54.98
2023-05-21T08:41:37.972Z,54.88
2023-05-21T08:42:38.037Z,54.58
2023-05-21T08:43:37.986Z,53.96
2023-05-21T08:44:38.888Z,54.06
2023-05-21T08:45:38.821Z,53.56
2023-05-21T08:46:37.939Z,53.66
2023-05-21T08:47:37.950Z,53.06
2023-05-21T08:49:36.454Z,53.64
2023-05-21T08:50:35.422Z,53.04
2023-05-21T08:51:35.408Z,52.94
2023-05-21T08:52:35.432Z,53.24
2023-05-21T08:53:35.471Z,52.62
2023-05-21T08:54:35.355Z,52.81
2023-05-21T08:55:36.529Z,52.72
2023-05-21T08:56:35.340Z,52.42
2023-05-21T08:57:35.380Z,52.02
2023-05-21T08:58:35.372Z,52.02
2023-05-21T08:59:35.354Z,51.92
2023-05-21T09:00:35.272Z,52.02
2023-05-21T09:01:36.240Z,52.02
2023-05-21T09:02:35.340Z,52.22
2023-05-21T09:03:35.279Z,52.29
2023-05-21T09:04:35.303Z,52.00
2023-05-21T09:05:35.472Z,51.10
2023-05-21T09:06:36.180Z,50.80
2023-05-21T09:07:35.210Z,50.70
2023-05-21T09:08:35.207Z,51.00
2023-05-21T09:09:35.291Z,51.12
2023-05-21T09:10:35.138Z,51.12
2023-05-21T09:11:36.138Z,51.03
2023-05-21T09:12:35.233Z,51.12
2023-05-21T09:13:37.474Z,51.22
2023-05-21T09:14:35.113Z,51.42
2023-05-21T09:15:35.176Z,51.52
2023-05-21T09:16:35.118Z,51.32
2023-05-21T09:17:36.085Z,51.42
2023-05-21T09:18:35.067Z,51.22
2023-05-21T09:19:35.825Z,50.73
2023-05-21T09:20:35.057Z,50.82
2023-05-21T09:21:35.024Z,50.52
2023-05-21T09:22:35.974Z,50.73
2023-05-21T09:23:35.120Z,50.70
2023-05-21T09:24:36.472Z,50.70
2023-05-21T09:25:35.141Z,50.80
2023-05-21T09:26:35.018Z,50.48
2023-05-21T09:27:35.874Z,50.08
2023-05-21T09:28:34.915Z,49.68
2023-05-21T09:29:34.982Z,49.66
2023-05-21T09:30:36.318Z,49.36
2023-05-21T09:31:34.965Z,49.16
2023-05-21T09:32:36.559Z,49.24
2023-05-21T09:33:34.904Z,49.34
2023-05-21T09:34:34.901Z,49.14
2023-05-21T09:35:36.131Z,49.41
2023-05-21T09:36:34.837Z,49.02
2023-05-21T09:37:34.802Z,48.62
2023-05-21T09:38:35.737Z,48.00
2023-05-21T09:39:34.807Z,47.80
2023-05-21T09:40:34.953Z,47.50
2023-05-21T09:41:34.777Z,47.61
2023-05-21T09:42:34.734Z,47.28
2023-05-21T09:43:35.693Z,47.09
2023-05-21T09:44:34.723Z,46.79
2023-05-21T09:45:35.003Z,46.59
2023-05-21T09:46:34.707Z,46.69
2023-05-21T09:47:34.740Z,47.19
2023-05-21T09:48:34.709Z,47.38
2023-05-21T09:49:35.617Z,47.28
2023-05-21T09:50:34.830Z,47.68
2023-05-21T09:51:34.649Z,47.49
2023-05-21T09:52:34.636Z,47.50
2023-05-21T09:53:34.952Z,47.61
2023-05-21T09:54:34.693Z,47.68
2023-05-21T09:55:35.521Z,47.58
2023-05-21T09:56:34.651Z,46.98
2023-05-21T09:57:34.534Z,46.57
2023-05-21T09:58:34.573Z,45.78
2023-05-21T09:59:34.559Z,44.89
2023-05-21T10:00:35.638Z,44.98
2023-05-21T10:01:34.565Z,44.98
2023-05-21T10:02:34.551Z,45.38
2023-05-21T10:03:34.557Z,44.86
2023-05-21T10:04:34.493Z,44.74
2023-05-21T10:05:35.408Z,44.35
2023-05-21T10:06:34.534Z,43.93
2023-05-21T10:07:34.416Z,43.33
2023-05-21T10:08:34.502Z,43.13
2023-05-21T10:09:34.412Z,43.33
2023-05-21T10:10:34.493Z,43.02
2023-05-21T10:11:35.333Z,42.32
2023-05-21T10:12:34.413Z,42.22
2023-05-21T10:13:34.386Z,42.11
2023-05-21T10:14:34.383Z,42.11
2023-05-21T10:15:34.361Z,41.30
2023-05-21T10:16:34.384Z,41.49
2023-05-21T10:17:35.231Z,41.61
2023-05-21T10:18:34.375Z,41.89
2023-05-21T10:19:34.365Z,42.08
2023-05-21T10:20:34.399Z,41.97
2023-05-21T10:21:34.369Z,41.57
2023-05-21T10:22:34.304Z,41.55
2023-05-21T10:23:35.181Z,41.33
2023-05-21T10:24:34.966Z,41.02
2023-05-21T10:25:34.203Z,40.92
2023-05-21T10:26:34.228Z,40.41
2023-05-21T10:27:34.299Z,39.89
2023-05-21T10:28:34.253Z,39.70
2023-05-21T10:29:35.118Z,39.39
2023-05-21T10:30:34.268Z,39.58
2023-05-21T10:31:34.157Z,39.37
2023-05-21T10:32:34.249Z,39.17
2023-05-21T10:33:34.202Z,39.15
2023-05-21T10:34:35.067Z,39.05
2023-05-21T10:35:34.154Z,38.64
2023-05-21T10:36:34.093Z,38.24
2023-05-21T10:37:34.105Z,38.13
2023-05-21T10:38:34.131Z,37.84
2023-05-21T10:39:34.053Z,37.82
2023-05-21T10:40:35.250Z,37.13
2023-05-21T10:41:34.059Z,37.23
2023-05-21T10:42:34.066Z,36.15
2023-05-21T10:43:34.181Z,36.93
2023-05-21T10:44:34.068Z,37.23
2023-05-21T10:45:34.050Z,37.05
2023-05-21T10:46:34.922Z,36.87
2023-05-21T10:47:34.106Z,36.87
2023-05-21T10:48:34.788Z,37.26
2023-05-21T10:49:33.918Z,37.55
2023-05-21T10:50:34.111Z,37.85
2023-05-21T10:51:34.925Z,37.97
2023-05-21T10:52:33.936Z,38.17
2023-05-21T10:53:33.917Z,38.46
2023-05-21T10:54:34.668Z,38.66
2023-05-21T10:55:34.019Z,38.46
2023-05-21T10:56:33.864Z,38.36
2023-05-21T10:57:34.879Z,38.56
2023-05-21T10:58:33.847Z,38.66
2023-05-21T10:59:33.809Z,38.56
2023-05-21T11:00:33.978Z,38.66
2023-05-21T11:01:34.013Z,38.66
2023-05-21T11:02:33.864Z,38.68
2023-05-21T11:03:37.484Z,38.68
2023-05-21T11:04:33.872Z,38.70
2023-05-21T11:05:33.724Z,38.99
2023-05-21T11:06:33.757Z,38.87
2023-05-21T11:07:33.732Z,38.48
2023-05-21T11:08:34.671Z,38.09
2023-05-21T11:09:33.747Z,37.49
2023-05-21T11:10:33.723Z,37.40
2023-05-21T11:11:33.674Z,36.99
2023-05-21T11:12:33.649Z,36.67
2023-05-21T11:13:33.716Z,36.55
2023-05-21T11:14:34.561Z,35.85
2023-05-21T11:15:33.645Z,35.74
2023-05-21T11:16:33.645Z,35.33
2023-05-21T11:17:33.634Z,33.54
2023-05-21T11:18:33.623Z,33.82
2023-05-21T11:19:34.614Z,33.61
2023-05-21T11:20:33.622Z,33.50
2023-05-21T11:21:33.587Z,33.29
2023-05-21T11:22:33.541Z,33.18
2023-05-21T11:23:33.545Z,32.87
2023-05-21T11:24:34.485Z,32.46
2023-05-21T11:25:33.514Z,31.98
2023-05-21T11:26:33.501Z,31.77
2023-05-21T11:27:33.484Z,31.56
2023-05-21T11:28:33.457Z,30.94
2023-05-21T11:29:34.374Z,30.52
2023-05-21T11:30:35.218Z,29.33
2023-05-21T11:31:33.448Z,29.13
2023-05-21T11:32:33.422Z,27.75
2023-05-21T11:33:33.439Z,27.44
2023-05-21T11:34:34.359Z,27.14
2023-05-21T11:35:33.378Z,26.67
2023-05-21T11:36:35.334Z,27.05
2023-05-21T11:37:33.477Z,26.75
2023-05-21T11:38:33.351Z,26.15
2023-05-21T11:39:34.302Z,26.64
2023-05-21T11:40:33.402Z,27.14
2023-05-21T11:41:33.366Z,26.75
2023-05-21T11:42:33.365Z,26.46
2023-05-21T11:43:33.316Z,26.36
2023-05-21T11:44:34.302Z,26.46
2023-05-21T11:45:33.321Z,25.79
2023-05-21T11:46:33.326Z,25.99
2023-05-21T11:47:33.319Z,26.39
2023-05-21T11:48:33.215Z,26.39
2023-05-21T11:49:34.146Z,26.20
2023-05-21T11:50:33.233Z,26.10
2023-05-21T11:51:33.182Z,26.10
2023-05-21T11:52:33.279Z,26.40
2023-05-21T11:53:33.245Z,26.90
2023-05-21T11:54:34.109Z,27.20
2023-05-21T11:55:33.186Z,27.51
2023-05-21T11:56:33.201Z,27.69
2023-05-21T11:57:33.168Z,27.70
2023-05-21T11:58:33.140Z,27.81
2023-05-21T11:59:34.011Z,28.12
2023-05-21T12:00:33.193Z,28.42
2023-05-21T12:01:33.126Z,28.32
2023-05-21T12:02:36.878Z,28.32
2023-05-21T12:03:33.144Z,28.52
2023-05-21T12:04:33.958Z,28.32
2023-05-21T12:05:33.087Z,28.22
2023-05-21T12:06:33.067Z,28.43
2023-05-21T12:07:33.178Z,28.53
2023-05-21T12:08:33.021Z,28.82
2023-05-21T12:09:33.009Z,28.72
2023-05-21T12:10:34.006Z,28.94
2023-05-21T12:11:33.064Z,29.64
2023-05-21T12:12:45.707Z,29.95
2023-05-21T12:13:34.459Z,30.16
2023-05-21T12:14:32.912Z,30.27
2023-05-21T12:15:33.952Z,30.47
2023-05-21T12:16:32.999Z,30.77
2023-05-21T12:17:32.908Z,30.37
2023-05-21T12:18:32.927Z,30.27
2023-05-21T12:19:32.913Z,30.47
2023-05-21T12:20:32.909Z,30.57
2023-05-21T12:21:33.860Z,30.67
2023-05-21T12:22:32.833Z,30.87
2023-05-21T12:23:32.809Z,30.77
2023-05-21T12:24:32.799Z,30.77
2023-05-21T12:25:32.784Z,31.07
2023-05-21T12:26:32.792Z,31.07
2023-05-21T12:27:35.203Z,31.27
2023-05-21T12:28:32.764Z,30.87
2023-05-21T12:29:32.770Z,30.74
2023-05-21T12:30:32.746Z,30.23
2023-05-21T12:31:32.972Z,29.06
2023-05-21T12:32:32.720Z,28.75
2023-05-21T12:33:33.633Z,28.86
2023-05-21T12:34:32.720Z,28.86
2023-05-21T12:35:32.843Z,29.06
2023-05-21T12:36:32.647Z,29.25
2023-05-21T12:37:32.671Z,28.85
2023-05-21T12:38:32.643Z,29.04
2023-05-21T12:39:33.574Z,28.85
2023-05-21T12:40:32.657Z,28.65
2023-05-21T12:41:32.614Z,28.94
2023-05-21T12:42:32.582Z,28.64
2023-05-21T12:43:32.580Z,28.92
2023-05-21T12:44:34.866Z,28.33
2023-05-21T12:45:32.573Z,28.32
2023-05-21T12:46:32.573Z,28.33
2023-05-21T12:47:32.621Z,27.83
2023-05-21T12:48:32.512Z,27.81
2023-05-21T12:49:33.405Z,27.72
2023-05-21T12:50:32.470Z,27.81
2023-05-21T12:51:32.529Z,28.03
2023-05-21T12:52:32.484Z,28.22
2023-05-21T12:53:32.456Z,28.11